CSS7223 ZSHC-ZGSZ
Flight info
| Callsign | CSS7223 |
|---|---|
| Flight time | 1h 53m |
| Altitude | 36100 |
| Route | UGA92D UGAGO A470 BEBEM R200 OVGOT OVGOT9ZA |
| Aircraft | B763/H-SDE3FGHIM3RWXY/LB1 |
Departure
| Time | 2026-04-29 07:47 |
|---|---|
| Airport | Hangzhou Xiaoshan International Airport (ZSHC) |
Arrival
| Time | 2026-04-29 09:40 |
|---|---|
| Airport | Shenzhen Bao'an International Airport (ZGSZ) |
| Time | Latitude | Longitude | Altitude | Speed | Heading |
|---|---|---|---|---|---|
| 2026-04-29 07:04 | 30.24620 | 120.43908 | 32 ft | 0 kts | 152° |
| 2026-04-29 07:32 | 30.24624 | 120.43906 | 32 ft | 2 kts | 152° |
| 2026-04-29 07:32 | 30.24637 | 120.43897 | 32 ft | 2 kts | 152° |
| 2026-04-29 07:32 | 30.24651 | 120.43890 | 32 ft | 2 kts | 152° |
| 2026-04-29 07:33 | 30.24664 | 120.43881 | 32 ft | 2 kts | 152° |
| 2026-04-29 07:33 | 30.24678 | 120.43874 | 32 ft | 2 kts | 174° |
| 2026-04-29 07:33 | 30.24692 | 120.43875 | 32 ft | 2 kts | 201° |
| 2026-04-29 07:33 | 30.24705 | 120.43884 | 32 ft | 2 kts | 229° |
| 2026-04-29 07:34 | 30.24713 | 120.43899 | 32 ft | 2 kts | 246° |
| 2026-04-29 07:34 | 30.24719 | 120.43914 | 32 ft | 2 kts | 242° |
| 2026-04-29 07:34 | 30.24726 | 120.43929 | 32 ft | 2 kts | 242° |
| 2026-04-29 07:34 | 30.24731 | 120.43939 | 32 ft | 0 kts | 242° |
| 2026-04-29 07:36 | 30.24708 | 120.43890 | 31 ft | 15 kts | 241° |
| 2026-04-29 07:36 | 30.24632 | 120.43726 | 31 ft | 26 kts | 242° |
| 2026-04-29 07:37 | 30.24574 | 120.43594 | 31 ft | 11 kts | 256° |
| 2026-04-29 07:37 | 30.24617 | 120.43523 | 31 ft | 17 kts | 330° |
| 2026-04-29 07:37 | 30.24737 | 120.43449 | 31 ft | 11 kts | 321° |
| 2026-04-29 07:37 | 30.24751 | 120.43372 | 31 ft | 10 kts | 248° |
| 2026-04-29 07:38 | 30.24697 | 120.43251 | 31 ft | 23 kts | 243° |
| 2026-04-29 07:38 | 30.24609 | 120.43052 | 31 ft | 31 kts | 242° |
| 2026-04-29 07:38 | 30.24505 | 120.42818 | 31 ft | 32 kts | 243° |
| 2026-04-29 07:38 | 30.24422 | 120.42628 | 31 ft | 21 kts | 243° |
| 2026-04-29 07:39 | 30.24354 | 120.42474 | 31 ft | 21 kts | 243° |
| 2026-04-29 07:39 | 30.24275 | 120.42299 | 31 ft | 27 kts | 243° |
| 2026-04-29 07:39 | 30.24191 | 120.42106 | 31 ft | 26 kts | 243° |
| 2026-04-29 07:39 | 30.24114 | 120.41933 | 31 ft | 23 kts | 243° |
| 2026-04-29 07:40 | 30.24041 | 120.41769 | 31 ft | 22 kts | 243° |
| 2026-04-29 07:40 | 30.23965 | 120.41599 | 31 ft | 25 kts | 243° |
| 2026-04-29 07:40 | 30.23884 | 120.41416 | 31 ft | 25 kts | 243° |
| 2026-04-29 07:40 | 30.23826 | 120.41284 | 31 ft | 15 kts | 243° |
| 2026-04-29 07:41 | 30.23747 | 120.41108 | 32 ft | 26 kts | 243° |
| 2026-04-29 07:41 | 30.23700 | 120.41004 | 31 ft | 2 kts | 242° |
| 2026-04-29 07:41 | 30.23690 | 120.40981 | 31 ft | 3 kts | 244° |
| 2026-04-29 07:41 | 30.23684 | 120.40947 | 31 ft | 5 kts | 283° |
| 2026-04-29 07:42 | 30.23716 | 120.40916 | 31 ft | 6 kts | 330° |
| 2026-04-29 07:42 | 30.23726 | 120.40910 | 31 ft | 0 kts | 331° |
| 2026-04-29 07:46 | 30.23726 | 120.40909 | 31 ft | 0 kts | 331° |
| 2026-04-29 07:46 | 30.23776 | 120.40881 | 31 ft | 15 kts | 335° |
| 2026-04-29 07:46 | 30.23836 | 120.40887 | 31 ft | 8 kts | 44° |
| 2026-04-29 07:46 | 30.23883 | 120.40981 | 31 ft | 19 kts | 64° |
| 2026-04-29 07:47 | 30.24031 | 120.41311 | 31 ft | 76 kts | 63° |
| 2026-04-29 07:47 | 30.24379 | 120.42094 | 32 ft | 143 kts | 62° |
| 2026-04-29 07:47 | 30.24899 | 120.43260 | 489 ft | 171 kts | 60° |
| 2026-04-29 07:47 | 30.25429 | 120.44411 | 1457 ft | 164 kts | 58° |
| 2026-04-29 07:48 | 30.25984 | 120.45599 | 1794 ft | 175 kts | 59° |
| 2026-04-29 07:48 | 30.26537 | 120.46880 | 2244 ft | 181 kts | 61° |
| 2026-04-29 07:48 | 30.27119 | 120.48221 | 2634 ft | 191 kts | 60° |
| 2026-04-29 07:48 | 30.27714 | 120.49585 | 3226 ft | 191 kts | 60° |
| 2026-04-29 07:49 | 30.28322 | 120.50967 | 3742 ft | 195 kts | 61° |
| 2026-04-29 07:49 | 30.28933 | 120.52357 | 4292 ft | 197 kts | 61° |
| 2026-04-29 07:49 | 30.29559 | 120.53776 | 4853 ft | 199 kts | 61° |
| 2026-04-29 07:49 | 30.30195 | 120.55214 | 5365 ft | 204 kts | 62° |
| 2026-04-29 07:50 | 30.30845 | 120.56686 | 5921 ft | 207 kts | 62° |
| 2026-04-29 07:50 | 30.31519 | 120.58208 | 6337 ft | 219 kts | 62° |
| 2026-04-29 07:50 | 30.32250 | 120.59747 | 6998 ft | 219 kts | 51° |
| 2026-04-29 07:50 | 30.33488 | 120.60799 | 7427 ft | 229 kts | 16° |
| 2026-04-29 07:51 | 30.35063 | 120.60864 | 7914 ft | 236 kts | 342° |
| 2026-04-29 07:51 | 30.36476 | 120.59862 | 8473 ft | 238 kts | 304° |
| 2026-04-29 07:51 | 30.37127 | 120.58170 | 9224 ft | 230 kts | 271° |
| 2026-04-29 07:51 | 30.37185 | 120.56349 | 9842 ft | 230 kts | 263° |
| 2026-04-29 07:52 | 30.36980 | 120.54479 | 9801 ft | 236 kts | 253° |
| 2026-04-29 07:52 | 30.36553 | 120.52704 | 9836 ft | 223 kts | 249° |
| 2026-04-29 07:52 | 30.36043 | 120.51025 | 9831 ft | 217 kts | 246° |
| 2026-04-29 07:52 | 30.35477 | 120.49422 | 9828 ft | 217 kts | 244° |
| 2026-04-29 07:53 | 30.34858 | 120.47826 | 9854 ft | 221 kts | 243° |
| 2026-04-29 07:53 | 30.34152 | 120.46106 | 9897 ft | 252 kts | 243° |
| 2026-04-29 07:53 | 30.33333 | 120.44177 | 9879 ft | 275 kts | 243° |
| 2026-04-29 07:53 | 30.32474 | 120.42187 | 9848 ft | 274 kts | 242° |
| 2026-04-29 07:54 | 30.31619 | 120.40227 | 9845 ft | 269 kts | 242° |
| 2026-04-29 07:54 | 30.30782 | 120.38320 | 9847 ft | 268 kts | 242° |
| 2026-04-29 07:54 | 30.29925 | 120.36377 | 9853 ft | 270 kts | 242° |
| 2026-04-29 07:54 | 30.29061 | 120.34430 | 9869 ft | 272 kts | 241° |
| 2026-04-29 07:55 | 30.28199 | 120.32478 | 9847 ft | 272 kts | 242° |
| 2026-04-29 07:55 | 30.27340 | 120.30544 | 9846 ft | 271 kts | 242° |
| 2026-04-29 07:55 | 30.26476 | 120.28597 | 9855 ft | 272 kts | 242° |
| 2026-04-29 07:55 | 30.25616 | 120.26662 | 9852 ft | 272 kts | 241° |
| 2026-04-29 07:56 | 30.24754 | 120.24723 | 9852 ft | 271 kts | 242° |
| 2026-04-29 07:56 | 30.23887 | 120.22772 | 9856 ft | 272 kts | 242° |
| 2026-04-29 07:56 | 30.23021 | 120.20825 | 9858 ft | 271 kts | 242° |
| 2026-04-29 07:56 | 30.22159 | 120.18891 | 9856 ft | 272 kts | 242° |
| 2026-04-29 07:57 | 30.21293 | 120.16945 | 9885 ft | 273 kts | 242° |
| 2026-04-29 07:57 | 30.20416 | 120.14976 | 10372 ft | 279 kts | 242° |
| 2026-04-29 07:57 | 30.19531 | 120.12996 | 11202 ft | 283 kts | 242° |
| 2026-04-29 07:57 | 30.18596 | 120.10911 | 11588 ft | 302 kts | 242° |
| 2026-04-29 07:58 | 30.17609 | 120.08710 | 12098 ft | 317 kts | 242° |
| 2026-04-29 07:58 | 30.16572 | 120.06388 | 12499 ft | 335 kts | 242° |
| 2026-04-29 07:58 | 30.15462 | 120.03922 | 12932 ft | 351 kts | 243° |
| 2026-04-29 07:58 | 30.14318 | 120.01366 | 13340 ft | 367 kts | 242° |
| 2026-04-29 07:59 | 30.13137 | 119.98734 | 14297 ft | 366 kts | 243° |
| 2026-04-29 07:59 | 30.11962 | 119.96117 | 14962 ft | 372 kts | 242° |
| 2026-04-29 07:59 | 30.10781 | 119.93493 | 15792 ft | 373 kts | 243° |
| 2026-04-29 07:59 | 30.09583 | 119.90827 | 16424 ft | 378 kts | 243° |
| 2026-04-29 08:00 | 30.08358 | 119.88107 | 17153 ft | 380 kts | 243° |
| 2026-04-29 08:00 | 30.07154 | 119.85428 | 17872 ft | 381 kts | 244° |
| 2026-04-29 08:00 | 30.05914 | 119.82676 | 18410 ft | 387 kts | 243° |
| 2026-04-29 08:00 | 30.04555 | 119.80022 | 19106 ft | 387 kts | 236° |
| 2026-04-29 08:01 | 30.02778 | 119.77658 | 19615 ft | 396 kts | 225° |
| 2026-04-29 08:01 | 30.00568 | 119.75703 | 20288 ft | 400 kts | 215° |
| 2026-04-29 08:01 | 29.98106 | 119.74149 | 20845 ft | 404 kts | 211° |
| 2026-04-29 08:01 | 29.95645 | 119.72634 | 21373 ft | 407 kts | 212° |
| 2026-04-29 08:02 | 29.93114 | 119.71095 | 21889 ft | 410 kts | 211° |
| 2026-04-29 08:02 | 29.90611 | 119.69570 | 22415 ft | 411 kts | 210° |
| 2026-04-29 08:02 | 29.88086 | 119.68072 | 22956 ft | 413 kts | 208° |
| 2026-04-29 08:02 | 29.85333 | 119.66910 | 23302 ft | 423 kts | 198° |
| 2026-04-29 08:03 | 29.82427 | 119.66354 | 23780 ft | 430 kts | 189° |
| 2026-04-29 08:03 | 29.79416 | 119.66184 | 24154 ft | 436 kts | 187° |
| 2026-04-29 08:03 | 29.76355 | 119.66013 | 24688 ft | 436 kts | 188° |
| 2026-04-29 08:03 | 29.73334 | 119.65800 | 25067 ft | 438 kts | 188° |
| 2026-04-29 08:04 | 29.70274 | 119.65590 | 25530 ft | 439 kts | 188° |
| 2026-04-29 08:04 | 29.67178 | 119.65367 | 25792 ft | 445 kts | 188° |
| 2026-04-29 08:04 | 29.64105 | 119.65157 | 26275 ft | 444 kts | 189° |
| 2026-04-29 08:04 | 29.61001 | 119.65002 | 26530 ft | 450 kts | 186° |
| 2026-04-29 08:05 | 29.57811 | 119.64937 | 26835 ft | 453 kts | 187° |
| 2026-04-29 08:05 | 29.54652 | 119.64852 | 27246 ft | 452 kts | 187° |
| 2026-04-29 08:05 | 29.51539 | 119.64663 | 27539 ft | 454 kts | 188° |
| 2026-04-29 08:05 | 29.48370 | 119.64467 | 27917 ft | 455 kts | 188° |
| 2026-04-29 08:06 | 29.45163 | 119.64269 | 28415 ft | 453 kts | 189° |
| 2026-04-29 08:06 | 29.42056 | 119.64080 | 29005 ft | 449 kts | 188° |
| 2026-04-29 08:06 | 29.38923 | 119.63887 | 29453 ft | 448 kts | 188° |
| 2026-04-29 08:06 | 29.35842 | 119.63699 | 29879 ft | 447 kts | 189° |
| 2026-04-29 08:07 | 29.32720 | 119.63508 | 30486 ft | 442 kts | 188° |
| 2026-04-29 08:07 | 29.29658 | 119.63319 | 30848 ft | 442 kts | 189° |
| 2026-04-29 08:07 | 29.26540 | 119.63129 | 31123 ft | 444 kts | 189° |
| 2026-04-29 08:07 | 29.23457 | 119.62940 | 31455 ft | 444 kts | 189° |
| 2026-04-29 08:08 | 29.20382 | 119.62754 | 31883 ft | 442 kts | 189° |
| 2026-04-29 08:08 | 29.17313 | 119.62565 | 32397 ft | 439 kts | 189° |
| 2026-04-29 08:08 | 29.14264 | 119.62379 | 32570 ft | 443 kts | 189° |
| 2026-04-29 08:08 | 29.11149 | 119.62188 | 32857 ft | 443 kts | 189° |
| 2026-04-29 08:09 | 29.08093 | 119.62002 | 33133 ft | 445 kts | 189° |
| 2026-04-29 08:09 | 29.04987 | 119.61808 | 33513 ft | 444 kts | 189° |
| 2026-04-29 08:09 | 29.01875 | 119.61614 | 33831 ft | 444 kts | 189° |
| 2026-04-29 08:09 | 28.98803 | 119.61424 | 34287 ft | 441 kts | 189° |
| 2026-04-29 08:10 | 28.95753 | 119.61234 | 34595 ft | 441 kts | 189° |
| 2026-04-29 08:10 | 28.92680 | 119.61043 | 34892 ft | 442 kts | 189° |
| 2026-04-29 08:10 | 28.89609 | 119.60852 | 35219 ft | 441 kts | 190° |
| 2026-04-29 08:10 | 28.86512 | 119.60660 | 35532 ft | 440 kts | 190° |
| 2026-04-29 08:11 | 28.83452 | 119.60470 | 35892 ft | 438 kts | 190° |
| 2026-04-29 08:11 | 28.80394 | 119.60280 | 36049 ft | 440 kts | 190° |
| 2026-04-29 08:11 | 28.77329 | 119.60091 | 36205 ft | 437 kts | 190° |
| 2026-04-29 08:11 | 28.74294 | 119.59901 | 36153 ft | 437 kts | 190° |
| 2026-04-29 08:12 | 28.68219 | 119.59525 | 36166 ft | 437 kts | 190° |
| 2026-04-29 08:12 | 28.62097 | 119.59146 | 36162 ft | 438 kts | 190° |
| 2026-04-29 08:13 | 28.56024 | 119.58771 | 36172 ft | 437 kts | 190° |
| 2026-04-29 08:13 | 28.49906 | 119.58393 | 36172 ft | 440 kts | 190° |
| 2026-04-29 08:14 | 28.43754 | 119.58025 | 36160 ft | 441 kts | 190° |
| 2026-04-29 08:14 | 28.37671 | 119.57690 | 36149 ft | 439 kts | 189° |
| 2026-04-29 08:15 | 28.31535 | 119.57349 | 36153 ft | 441 kts | 189° |
| 2026-04-29 08:15 | 28.25378 | 119.57010 | 36149 ft | 439 kts | 189° |
| 2026-04-29 08:16 | 28.19282 | 119.56672 | 36140 ft | 441 kts | 189° |
| 2026-04-29 08:16 | 28.13130 | 119.56332 | 36131 ft | 441 kts | 189° |
| 2026-04-29 08:17 | 28.06958 | 119.56111 | 36121 ft | 442 kts | 187° |
| 2026-04-29 08:17 | 28.00810 | 119.56020 | 36123 ft | 445 kts | 187° |
| 2026-04-29 08:18 | 27.94623 | 119.55926 | 36119 ft | 444 kts | 187° |
| 2026-04-29 08:18 | 27.88432 | 119.55866 | 36113 ft | 444 kts | 187° |
| 2026-04-29 08:19 | 27.82237 | 119.55831 | 36119 ft | 444 kts | 187° |
| 2026-04-29 08:19 | 27.76041 | 119.55797 | 36114 ft | 444 kts | 187° |
| 2026-04-29 08:20 | 27.69838 | 119.55760 | 36108 ft | 446 kts | 187° |
| 2026-04-29 08:20 | 27.63598 | 119.55725 | 36106 ft | 448 kts | 187° |
| 2026-04-29 08:21 | 27.57376 | 119.55690 | 36101 ft | 445 kts | 187° |
| 2026-04-29 08:21 | 27.51165 | 119.55654 | 36103 ft | 448 kts | 187° |
| 2026-04-29 08:22 | 27.44924 | 119.55617 | 36103 ft | 449 kts | 186° |
| 2026-04-29 08:22 | 27.38638 | 119.55603 | 36089 ft | 449 kts | 186° |
| 2026-04-29 08:23 | 27.32417 | 119.55593 | 36090 ft | 449 kts | 187° |
| 2026-04-29 08:23 | 27.26152 | 119.55582 | 36083 ft | 448 kts | 187° |
| 2026-04-29 08:24 | 27.19905 | 119.55544 | 36090 ft | 447 kts | 187° |
| 2026-04-29 08:24 | 27.13672 | 119.55504 | 36082 ft | 450 kts | 187° |
| 2026-04-29 08:25 | 27.07378 | 119.55463 | 36071 ft | 451 kts | 186° |
| 2026-04-29 08:25 | 27.01070 | 119.55424 | 36066 ft | 451 kts | 186° |
| 2026-04-29 08:26 | 26.94794 | 119.55384 | 36063 ft | 451 kts | 187° |
| 2026-04-29 08:26 | 26.88502 | 119.55344 | 36060 ft | 451 kts | 186° |
| 2026-04-29 08:27 | 26.82189 | 119.55303 | 36063 ft | 452 kts | 186° |
| 2026-04-29 08:27 | 26.75853 | 119.55263 | 36060 ft | 453 kts | 186° |
| 2026-04-29 08:28 | 26.69560 | 119.55223 | 36061 ft | 452 kts | 186° |
| 2026-04-29 08:28 | 26.63207 | 119.55183 | 36063 ft | 454 kts | 187° |
| 2026-04-29 08:29 | 26.56891 | 119.55142 | 36062 ft | 454 kts | 186° |
| 2026-04-29 08:29 | 26.50541 | 119.55102 | 36059 ft | 455 kts | 186° |
| 2026-04-29 08:30 | 26.40992 | 119.55043 | 36051 ft | 453 kts | 186° |
| 2026-04-29 08:31 | 26.34667 | 119.54981 | 36048 ft | 455 kts | 186° |
| 2026-04-29 08:31 | 26.28334 | 119.54907 | 36049 ft | 455 kts | 186° |
| 2026-04-29 08:32 | 26.21982 | 119.54546 | 36053 ft | 449 kts | 196° |
| 2026-04-29 08:32 | 26.16029 | 119.52730 | 36044 ft | 445 kts | 201° |
| 2026-04-29 08:33 | 26.10068 | 119.50743 | 36043 ft | 445 kts | 202° |
| 2026-04-29 08:33 | 26.04104 | 119.48728 | 36039 ft | 447 kts | 202° |
| 2026-04-29 08:34 | 25.98183 | 119.46720 | 36033 ft | 445 kts | 202° |
| 2026-04-29 08:34 | 25.92236 | 119.44700 | 36041 ft | 446 kts | 202° |
| 2026-04-29 08:35 | 25.86290 | 119.42680 | 36047 ft | 446 kts | 202° |
| 2026-04-29 08:35 | 25.80356 | 119.40667 | 36041 ft | 445 kts | 202° |
| 2026-04-29 08:36 | 25.74750 | 119.38102 | 36062 ft | 436 kts | 217° |
| 2026-04-29 08:36 | 25.70161 | 119.33749 | 36061 ft | 432 kts | 229° |
| 2026-04-29 08:37 | 25.65950 | 119.28950 | 36052 ft | 432 kts | 229° |
| 2026-04-29 08:37 | 25.61816 | 119.24160 | 36050 ft | 430 kts | 229° |
| 2026-04-29 08:38 | 25.57662 | 119.19314 | 36049 ft | 433 kts | 229° |
| 2026-04-29 08:38 | 25.53527 | 119.14477 | 36046 ft | 432 kts | 229° |
| 2026-04-29 08:39 | 25.49413 | 119.09667 | 36046 ft | 431 kts | 229° |
| 2026-04-29 08:39 | 25.45267 | 119.04820 | 36049 ft | 432 kts | 230° |
| 2026-04-29 08:40 | 25.41166 | 119.00029 | 36040 ft | 431 kts | 229° |
| 2026-04-29 08:40 | 25.37033 | 118.95205 | 36037 ft | 432 kts | 229° |
| 2026-04-29 08:41 | 25.32900 | 118.90338 | 36026 ft | 431 kts | 230° |
| 2026-04-29 08:41 | 25.28858 | 118.85435 | 36017 ft | 431 kts | 230° |
| 2026-04-29 08:42 | 25.24827 | 118.80559 | 36011 ft | 430 kts | 230° |
| 2026-04-29 08:42 | 25.20781 | 118.75670 | 36004 ft | 432 kts | 230° |
| 2026-04-29 08:43 | 25.16742 | 118.70794 | 36000 ft | 431 kts | 230° |
| 2026-04-29 08:43 | 25.12679 | 118.65895 | 36001 ft | 432 kts | 230° |
| 2026-04-29 08:44 | 25.08604 | 118.61016 | 35993 ft | 432 kts | 229° |
| 2026-04-29 08:44 | 25.04431 | 118.56229 | 35990 ft | 431 kts | 229° |
| 2026-04-29 08:45 | 25.00252 | 118.51434 | 35984 ft | 432 kts | 229° |
| 2026-04-29 08:45 | 24.96103 | 118.46677 | 35971 ft | 431 kts | 229° |
| 2026-04-29 08:46 | 24.91933 | 118.41901 | 35972 ft | 430 kts | 229° |
| 2026-04-29 08:46 | 24.87812 | 118.37186 | 35972 ft | 431 kts | 229° |
| 2026-04-29 08:47 | 24.83646 | 118.32423 | 35981 ft | 432 kts | 228° |
| 2026-04-29 08:47 | 24.79481 | 118.27668 | 35975 ft | 432 kts | 228° |
| 2026-04-29 08:48 | 24.75308 | 118.22907 | 35967 ft | 432 kts | 228° |
| 2026-04-29 08:48 | 24.71129 | 118.18147 | 35975 ft | 432 kts | 228° |
| 2026-04-29 08:49 | 24.66954 | 118.13397 | 35972 ft | 431 kts | 228° |
| 2026-04-29 08:49 | 24.62774 | 118.08649 | 35970 ft | 433 kts | 228° |
| 2026-04-29 08:50 | 24.58589 | 118.03899 | 35980 ft | 435 kts | 228° |
| 2026-04-29 08:50 | 24.54432 | 117.99040 | 35979 ft | 432 kts | 230° |
| 2026-04-29 08:51 | 24.50380 | 117.94134 | 35973 ft | 433 kts | 230° |
| 2026-04-29 08:51 | 24.46322 | 117.89231 | 35960 ft | 435 kts | 230° |
| 2026-04-29 08:52 | 24.42234 | 117.84299 | 35959 ft | 433 kts | 229° |
| 2026-04-29 08:52 | 24.38167 | 117.79397 | 35956 ft | 435 kts | 229° |
| 2026-04-29 08:53 | 24.34080 | 117.74475 | 35959 ft | 436 kts | 229° |
| 2026-04-29 08:53 | 24.29973 | 117.69537 | 35963 ft | 438 kts | 229° |
| 2026-04-29 08:54 | 24.25850 | 117.64585 | 35972 ft | 438 kts | 229° |
| 2026-04-29 08:54 | 24.21749 | 117.59660 | 35983 ft | 439 kts | 229° |
| 2026-04-29 08:55 | 24.17610 | 117.54698 | 35993 ft | 441 kts | 229° |
| 2026-04-29 08:55 | 24.13402 | 117.49794 | 35997 ft | 438 kts | 224° |
| 2026-04-29 08:56 | 24.08882 | 117.45331 | 36003 ft | 441 kts | 224° |
| 2026-04-29 08:56 | 24.04286 | 117.40807 | 36009 ft | 442 kts | 224° |
| 2026-04-29 08:57 | 23.99700 | 117.36308 | 36000 ft | 441 kts | 224° |
| 2026-04-29 08:57 | 23.95087 | 117.31789 | 35995 ft | 444 kts | 223° |
| 2026-04-29 08:58 | 23.90470 | 117.27274 | 35984 ft | 443 kts | 223° |
| 2026-04-29 08:58 | 23.85886 | 117.22795 | 35982 ft | 443 kts | 223° |
| 2026-04-29 08:59 | 23.81272 | 117.18292 | 35981 ft | 441 kts | 223° |
| 2026-04-29 08:59 | 23.76693 | 117.13824 | 35973 ft | 441 kts | 224° |
| 2026-04-29 09:00 | 23.72426 | 117.09029 | 35968 ft | 441 kts | 227° |
| 2026-04-29 09:00 | 23.68204 | 117.04198 | 35959 ft | 440 kts | 227° |
| 2026-04-29 09:01 | 23.63978 | 116.99380 | 35962 ft | 439 kts | 227° |
| 2026-04-29 09:01 | 23.59751 | 116.94570 | 35957 ft | 438 kts | 227° |
| 2026-04-29 09:02 | 23.55534 | 116.89778 | 35973 ft | 437 kts | 227° |
| 2026-04-29 09:02 | 23.51318 | 116.84991 | 35962 ft | 438 kts | 227° |
| 2026-04-29 09:03 | 23.47087 | 116.80196 | 35968 ft | 438 kts | 227° |
| 2026-04-29 09:03 | 23.42679 | 116.75656 | 35982 ft | 437 kts | 219° |
| 2026-04-29 09:04 | 23.37865 | 116.71619 | 35979 ft | 437 kts | 219° |
| 2026-04-29 09:04 | 23.33046 | 116.67594 | 35971 ft | 436 kts | 219° |
| 2026-04-29 09:05 | 23.28205 | 116.63566 | 35905 ft | 438 kts | 219° |
| 2026-04-29 09:05 | 23.25796 | 116.61564 | 35594 ft | 441 kts | 219° |
| 2026-04-29 09:05 | 23.23363 | 116.59545 | 35302 ft | 439 kts | 219° |
| 2026-04-29 09:05 | 23.20915 | 116.57514 | 35003 ft | 438 kts | 220° |
| 2026-04-29 09:06 | 23.18478 | 116.55495 | 34708 ft | 438 kts | 220° |
| 2026-04-29 09:06 | 23.16066 | 116.53496 | 34418 ft | 440 kts | 220° |
| 2026-04-29 09:06 | 23.13621 | 116.51472 | 34126 ft | 441 kts | 220° |
| 2026-04-29 09:06 | 23.11169 | 116.49441 | 33835 ft | 443 kts | 220° |
| 2026-04-29 09:07 | 23.08700 | 116.47399 | 33543 ft | 444 kts | 220° |
| 2026-04-29 09:07 | 23.06254 | 116.45376 | 33253 ft | 445 kts | 220° |
| 2026-04-29 09:07 | 23.03772 | 116.43325 | 32962 ft | 446 kts | 220° |
| 2026-04-29 09:07 | 23.01313 | 116.41289 | 32683 ft | 447 kts | 221° |
| 2026-04-29 09:08 | 22.99021 | 116.39001 | 32418 ft | 445 kts | 230° |
| 2026-04-29 09:08 | 22.97134 | 116.36336 | 32167 ft | 443 kts | 239° |
| 2026-04-29 09:08 | 22.95703 | 116.33407 | 31755 ft | 446 kts | 248° |
| 2026-04-29 09:08 | 22.94707 | 116.30181 | 31013 ft | 452 kts | 257° |
| 2026-04-29 09:09 | 22.94188 | 116.26809 | 30258 ft | 452 kts | 263° |
| 2026-04-29 09:09 | 22.93802 | 116.23466 | 29501 ft | 451 kts | 263° |
| 2026-04-29 09:09 | 22.93425 | 116.20097 | 28730 ft | 450 kts | 263° |
| 2026-04-29 09:09 | 22.93055 | 116.16701 | 27982 ft | 448 kts | 263° |
| 2026-04-29 09:10 | 22.92700 | 116.13382 | 27247 ft | 444 kts | 263° |
| 2026-04-29 09:10 | 22.92351 | 116.10074 | 26502 ft | 439 kts | 263° |
| 2026-04-29 09:10 | 22.92006 | 116.06792 | 25759 ft | 435 kts | 264° |
| 2026-04-29 09:10 | 22.91669 | 116.03570 | 25063 ft | 434 kts | 263° |
| 2026-04-29 09:11 | 22.91331 | 116.00349 | 24561 ft | 427 kts | 263° |
| 2026-04-29 09:11 | 22.90998 | 115.97176 | 24080 ft | 421 kts | 263° |
| 2026-04-29 09:11 | 22.90671 | 115.94061 | 23568 ft | 414 kts | 264° |
| 2026-04-29 09:11 | 22.90347 | 115.90971 | 23106 ft | 407 kts | 263° |
| 2026-04-29 09:12 | 22.90028 | 115.87929 | 22674 ft | 406 kts | 264° |
| 2026-04-29 09:12 | 22.89724 | 115.84888 | 22239 ft | 407 kts | 264° |
| 2026-04-29 09:12 | 22.89420 | 115.81853 | 21826 ft | 406 kts | 264° |
| 2026-04-29 09:12 | 22.89117 | 115.78813 | 21409 ft | 403 kts | 264° |
| 2026-04-29 09:13 | 22.88814 | 115.75798 | 20991 ft | 400 kts | 263° |
| 2026-04-29 09:13 | 22.88516 | 115.72824 | 20568 ft | 395 kts | 263° |
| 2026-04-29 09:13 | 22.88217 | 115.69859 | 20156 ft | 393 kts | 263° |
| 2026-04-29 09:13 | 22.87919 | 115.66923 | 19744 ft | 392 kts | 263° |
| 2026-04-29 09:14 | 22.87626 | 115.64017 | 19334 ft | 390 kts | 263° |
| 2026-04-29 09:14 | 22.87329 | 115.61085 | 18915 ft | 387 kts | 263° |
| 2026-04-29 09:14 | 22.87037 | 115.58211 | 18507 ft | 384 kts | 263° |
| 2026-04-29 09:14 | 22.86750 | 115.55389 | 18095 ft | 380 kts | 263° |
| 2026-04-29 09:15 | 22.86454 | 115.52488 | 17675 ft | 376 kts | 263° |
| 2026-04-29 09:15 | 22.86168 | 115.49687 | 17278 ft | 374 kts | 263° |
| 2026-04-29 09:15 | 22.85882 | 115.46882 | 16871 ft | 372 kts | 263° |
| 2026-04-29 09:15 | 22.85599 | 115.44129 | 16469 ft | 370 kts | 263° |
| 2026-04-29 09:16 | 22.85315 | 115.41360 | 16056 ft | 368 kts | 263° |
| 2026-04-29 09:16 | 22.85033 | 115.38603 | 15643 ft | 365 kts | 263° |
| 2026-04-29 09:16 | 22.84752 | 115.35887 | 15242 ft | 363 kts | 262° |
| 2026-04-29 09:16 | 22.84470 | 115.33148 | 14843 ft | 361 kts | 262° |
| 2026-04-29 09:17 | 22.84191 | 115.30447 | 14431 ft | 357 kts | 262° |
| 2026-04-29 09:17 | 22.83916 | 115.27788 | 14038 ft | 353 kts | 262° |
| 2026-04-29 09:17 | 22.83646 | 115.25176 | 13653 ft | 350 kts | 262° |
| 2026-04-29 09:17 | 22.83374 | 115.22566 | 13276 ft | 348 kts | 261° |
| 2026-04-29 09:18 | 22.83102 | 115.19946 | 12895 ft | 348 kts | 262° |
| 2026-04-29 09:18 | 22.82830 | 115.17340 | 12501 ft | 347 kts | 261° |
| 2026-04-29 09:18 | 22.82560 | 115.14750 | 12109 ft | 345 kts | 261° |
| 2026-04-29 09:18 | 22.82291 | 115.12178 | 11719 ft | 344 kts | 261° |
| 2026-04-29 09:19 | 22.82022 | 115.09609 | 11342 ft | 343 kts | 261° |
| 2026-04-29 09:19 | 22.81749 | 115.07017 | 10962 ft | 343 kts | 261° |
| 2026-04-29 09:19 | 22.81480 | 115.04438 | 10564 ft | 343 kts | 261° |
| 2026-04-29 09:19 | 22.81208 | 115.01859 | 10180 ft | 341 kts | 261° |
| 2026-04-29 09:20 | 22.80949 | 114.99383 | 9826 ft | 323 kts | 261° |
| 2026-04-29 09:20 | 22.80700 | 114.97023 | 9360 ft | 308 kts | 261° |
| 2026-04-29 09:20 | 22.80465 | 114.94785 | 9023 ft | 292 kts | 262° |
| 2026-04-29 09:20 | 22.80240 | 114.92657 | 8715 ft | 277 kts | 261° |
| 2026-04-29 09:21 | 22.80028 | 114.90655 | 8676 ft | 258 kts | 261° |
| 2026-04-29 09:21 | 22.79827 | 114.88758 | 8683 ft | 256 kts | 261° |
| 2026-04-29 09:21 | 22.79620 | 114.86820 | 8674 ft | 258 kts | 261° |
| 2026-04-29 09:21 | 22.79414 | 114.84891 | 8677 ft | 259 kts | 261° |
| 2026-04-29 09:22 | 22.79207 | 114.82941 | 8668 ft | 257 kts | 262° |
| 2026-04-29 09:22 | 22.79003 | 114.81034 | 8673 ft | 255 kts | 261° |
| 2026-04-29 09:22 | 22.78798 | 114.79115 | 8672 ft | 256 kts | 262° |
| 2026-04-29 09:22 | 22.78591 | 114.77179 | 8678 ft | 258 kts | 262° |
| 2026-04-29 09:23 | 22.78385 | 114.75244 | 8669 ft | 257 kts | 262° |
| 2026-04-29 09:23 | 22.78190 | 114.73331 | 8644 ft | 257 kts | 262° |
| 2026-04-29 09:23 | 22.77994 | 114.71405 | 8588 ft | 256 kts | 262° |
| 2026-04-29 09:23 | 22.77799 | 114.69486 | 8536 ft | 256 kts | 262° |
| 2026-04-29 09:24 | 22.77601 | 114.67542 | 8491 ft | 257 kts | 262° |
| 2026-04-29 09:24 | 22.77406 | 114.65626 | 8432 ft | 254 kts | 262° |
| 2026-04-29 09:24 | 22.77211 | 114.63712 | 8383 ft | 255 kts | 263° |
| 2026-04-29 09:24 | 22.77017 | 114.61817 | 8342 ft | 256 kts | 262° |
| 2026-04-29 09:25 | 22.76820 | 114.59885 | 8293 ft | 256 kts | 262° |
| 2026-04-29 09:25 | 22.76626 | 114.57995 | 8255 ft | 253 kts | 262° |
| 2026-04-29 09:25 | 22.76430 | 114.56082 | 8193 ft | 253 kts | 262° |
| 2026-04-29 09:25 | 22.76236 | 114.54189 | 8146 ft | 253 kts | 262° |
| 2026-04-29 09:26 | 22.75920 | 114.52302 | 8078 ft | 252 kts | 255° |
| 2026-04-29 09:26 | 22.75483 | 114.50462 | 7937 ft | 255 kts | 255° |
| 2026-04-29 09:26 | 22.75051 | 114.48593 | 7767 ft | 257 kts | 255° |
| 2026-04-29 09:26 | 22.74611 | 114.46711 | 7629 ft | 254 kts | 255° |
| 2026-04-29 09:27 | 22.74185 | 114.44884 | 7486 ft | 251 kts | 256° |
| 2026-04-29 09:27 | 22.73754 | 114.43040 | 7346 ft | 251 kts | 256° |
| 2026-04-29 09:27 | 22.73325 | 114.41207 | 7211 ft | 252 kts | 256° |
| 2026-04-29 09:27 | 22.72889 | 114.39345 | 7077 ft | 253 kts | 256° |
| 2026-04-29 09:28 | 22.72458 | 114.37499 | 6935 ft | 252 kts | 256° |
| 2026-04-29 09:28 | 22.72030 | 114.35675 | 6788 ft | 252 kts | 256° |
| 2026-04-29 09:28 | 22.71595 | 114.33821 | 6653 ft | 252 kts | 256° |
| 2026-04-29 09:28 | 22.71167 | 114.31998 | 6516 ft | 251 kts | 256° |
| 2026-04-29 09:29 | 22.70738 | 114.30170 | 6388 ft | 249 kts | 256° |
| 2026-04-29 09:29 | 22.69883 | 114.26531 | 6123 ft | 249 kts | 255° |
| 2026-04-29 09:29 | 22.69452 | 114.24703 | 5981 ft | 250 kts | 256° |
| 2026-04-29 09:30 | 22.69024 | 114.22882 | 5847 ft | 250 kts | 256° |
| 2026-04-29 09:30 | 22.68590 | 114.21040 | 5686 ft | 250 kts | 256° |
| 2026-04-29 09:30 | 22.68164 | 114.19235 | 5562 ft | 249 kts | 256° |
| 2026-04-29 09:30 | 22.67732 | 114.17401 | 5404 ft | 248 kts | 256° |
| 2026-04-29 09:31 | 22.67309 | 114.15607 | 5276 ft | 246 kts | 256° |
| 2026-04-29 09:31 | 22.66894 | 114.13850 | 5211 ft | 235 kts | 256° |
| 2026-04-29 09:31 | 22.66499 | 114.12177 | 5191 ft | 224 kts | 257° |
| 2026-04-29 09:31 | 22.66120 | 114.10573 | 5216 ft | 210 kts | 257° |
| 2026-04-29 09:32 | 22.65766 | 114.09073 | 5231 ft | 205 kts | 257° |
| 2026-04-29 09:32 | 22.65269 | 114.07615 | 5200 ft | 212 kts | 237° |
| 2026-04-29 09:32 | 22.64273 | 114.06390 | 5104 ft | 220 kts | 230° |
| 2026-04-29 09:32 | 22.63228 | 114.05174 | 4810 ft | 221 kts | 230° |
| 2026-04-29 09:33 | 22.62179 | 114.03959 | 4520 ft | 220 kts | 230° |
| 2026-04-29 09:33 | 22.61136 | 114.02760 | 4262 ft | 217 kts | 230° |
| 2026-04-29 09:33 | 22.60089 | 114.01560 | 4054 ft | 214 kts | 230° |
| 2026-04-29 09:33 | 22.59075 | 114.00399 | 3859 ft | 214 kts | 230° |
| 2026-04-29 09:34 | 22.58038 | 113.99213 | 3658 ft | 215 kts | 231° |
| 2026-04-29 09:34 | 22.56994 | 113.98022 | 3443 ft | 218 kts | 231° |
| 2026-04-29 09:34 | 22.55947 | 113.96827 | 3206 ft | 220 kts | 230° |
| 2026-04-29 09:34 | 22.54886 | 113.95618 | 2931 ft | 222 kts | 230° |
| 2026-04-29 09:35 | 22.53844 | 113.94434 | 2785 ft | 208 kts | 230° |
| 2026-04-29 09:35 | 22.52880 | 113.93340 | 2732 ft | 189 kts | 231° |
| 2026-04-29 09:35 | 22.52020 | 113.92364 | 2738 ft | 174 kts | 231° |
| 2026-04-29 09:35 | 22.51189 | 113.91414 | 2790 ft | 176 kts | 231° |
| 2026-04-29 09:36 | 22.50337 | 113.90404 | 2744 ft | 183 kts | 239° |
| 2026-04-29 09:36 | 22.49987 | 113.89172 | 2605 ft | 166 kts | 278° |
| 2026-04-29 09:36 | 22.50415 | 113.88051 | 2492 ft | 165 kts | 318° |
| 2026-04-29 09:36 | 22.51442 | 113.87510 | 2356 ft | 166 kts | 342° |
| 2026-04-29 09:37 | 22.52503 | 113.87098 | 2159 ft | 148 kts | 337° |
| 2026-04-29 09:37 | 22.53406 | 113.86678 | 1927 ft | 134 kts | 336° |
| 2026-04-29 09:37 | 22.54239 | 113.86269 | 1751 ft | 131 kts | 336° |
| 2026-04-29 09:37 | 22.55087 | 113.85837 | 1608 ft | 135 kts | 336° |
| 2026-04-29 09:38 | 22.55939 | 113.85391 | 1442 ft | 135 kts | 335° |
| 2026-04-29 09:38 | 22.56783 | 113.84941 | 1259 ft | 134 kts | 335° |
| 2026-04-29 09:38 | 22.57623 | 113.84487 | 1077 ft | 134 kts | 334° |
| 2026-04-29 09:38 | 22.58481 | 113.84032 | 903 ft | 139 kts | 335° |
| 2026-04-29 09:39 | 22.59352 | 113.83571 | 722 ft | 138 kts | 334° |
| 2026-04-29 09:39 | 22.60179 | 113.83113 | 444 ft | 131 kts | 333° |
| 2026-04-29 09:39 | 22.61022 | 113.82652 | 334 ft | 136 kts | 334° |
| 2026-04-29 09:39 | 22.61879 | 113.82189 | 188 ft | 135 kts | 334° |
| 2026-04-29 09:40 | 22.62715 | 113.81731 | 39 ft | 136 kts | 333° |
| 2026-04-29 09:40 | 22.63510 | 113.81293 | 24 ft | 100 kts | 334° |
| 2026-04-29 09:40 | 22.63934 | 113.81060 | 23 ft | 57 kts | 333° |
| 2026-04-29 09:40 | 22.64170 | 113.80935 | 23 ft | 25 kts | 336° |
| 2026-04-29 09:41 | 22.64320 | 113.80901 | 23 ft | 17 kts | 359° |
| 2026-04-29 09:41 | 22.64415 | 113.80902 | 23 ft | 10 kts | 2° |
| 2026-04-29 09:41 | 22.64476 | 113.80925 | 23 ft | 9 kts | 47° |
| 2026-04-29 09:41 | 22.64510 | 113.80982 | 23 ft | 8 kts | 63° |
| 2026-04-29 09:42 | 22.64537 | 113.81041 | 23 ft | 8 kts | 63° |
| 2026-04-29 09:42 | 22.64557 | 113.81092 | 23 ft | 5 kts | 78° |
| 2026-04-29 09:42 | 22.64523 | 113.81142 | 23 ft | 12 kts | 159° |
| 2026-04-29 09:42 | 22.64466 | 113.81174 | 23 ft | 9 kts | 153° |
| 2026-04-29 09:43 | 22.64371 | 113.81226 | 23 ft | 17 kts | 153° |
| 2026-04-29 09:43 | 22.64324 | 113.81313 | 23 ft | 12 kts | 120° |
| 2026-04-29 09:43 | 22.64241 | 113.81373 | 23 ft | 17 kts | 153° |
| 2026-04-29 09:43 | 22.64101 | 113.81451 | 23 ft | 26 kts | 152° |
| 2026-04-29 09:44 | 22.63924 | 113.81548 | 23 ft | 30 kts | 153° |
| 2026-04-29 09:44 | 22.63736 | 113.81653 | 23 ft | 29 kts | 153° |
| 2026-04-29 09:44 | 22.63579 | 113.81727 | 23 ft | 16 kts | 188° |
| 2026-04-29 09:44 | 22.63516 | 113.81642 | 23 ft | 14 kts | 219° |
| 2026-04-29 09:45 | 22.63423 | 113.81669 | 23 ft | 15 kts | 154° |
| 2026-04-29 09:45 | 22.63308 | 113.81731 | 23 ft | 21 kts | 152° |
| 2026-04-29 09:45 | 22.63157 | 113.81813 | 23 ft | 25 kts | 154° |
| 2026-04-29 09:45 | 22.62985 | 113.81908 | 23 ft | 29 kts | 153° |
| 2026-04-29 09:46 | 22.62797 | 113.82011 | 23 ft | 30 kts | 153° |
| 2026-04-29 09:46 | 22.62611 | 113.82113 | 23 ft | 30 kts | 153° |
| 2026-04-29 09:46 | 22.62422 | 113.82216 | 23 ft | 30 kts | 153° |
| 2026-04-29 09:46 | 22.62244 | 113.82313 | 23 ft | 26 kts | 153° |
| 2026-04-29 09:47 | 22.62075 | 113.82406 | 23 ft | 27 kts | 154° |
| 2026-04-29 09:47 | 22.61958 | 113.82493 | 23 ft | 11 kts | 90° |
| 2026-04-29 09:47 | 22.61992 | 113.82581 | 23 ft | 12 kts | 59° |
| 2026-04-29 09:47 | 22.62054 | 113.82587 | 23 ft | 9 kts | 334° |
| 2026-04-29 09:48 | 22.62116 | 113.82556 | 23 ft | 9 kts | 334° |
| 2026-04-29 09:48 | 22.62170 | 113.82525 | 23 ft | 5 kts | 321° |
| 2026-04-29 09:48 | 22.62177 | 113.82505 | 23 ft | 1 kts | 262° |
| 2026-04-29 09:48 | 22.62174 | 113.82499 | 23 ft | 2 kts | 240° |
| 2026-04-29 09:49 | 22.62156 | 113.82463 | 23 ft | 4 kts | 243° |
| 2026-04-29 09:49 | 22.62152 | 113.82455 | 23 ft | 0 kts | 243° |